Time,TemperatureF,DewpointF,PressureIn,WindDirection,WindDirectionDegrees,WindSpeedMPH,WindSpeedGustMPH,Humidity,HourlyPrecipIn,Conditions,Clouds,dailyrainin,SoftwareType,DateUTC
2013-08-17 03:21:00,77.0,22.0,29.55,North,11,8.0,12.0,13,0.00,,,0.00,,2013-08-17 09:21:00,
2013-08-17 03:43:00,75.0,24.0,29.56,West,267,0.0,9.0,15,0.00,,,0.00,,2013-08-17 09:43:00,
2013-08-17 03:53:00,74.0,25.0,29.57,South,186,6.0,9.0,16,0.00,,,0.00,,2013-08-17 09:53:00,
2013-08-17 04:12:00,75.0,24.0,29.56,South,191,7.0,9.0,15,0.00,,,0.00,,2013-08-17 10:12:00,
2013-08-17 04:23:00,75.0,24.0,29.56,SSW,194,5.0,11.0,15,0.00,,,0.00,,2013-08-17 10:23:00,
2013-08-17 04:52:00,73.0,26.0,29.57,WSW,247,1.0,6.0,17,0.00,,,0.00,,2013-08-17 10:52:00,
2013-08-17 05:11:00,70.0,26.0,29.57,East,83,3.0,5.0,19,0.00,,,0.00,,2013-08-17 11:11:00,
2013-08-17 05:21:00,69.0,25.0,29.58,South,191,2.0,5.0,19,0.00,,,0.00,,2013-08-17 11:21:00,
2013-08-17 05:41:00,68.0,25.0,29.58,West,263,2.0,4.0,20,0.00,,,0.00,,2013-08-17 11:41:00,
2013-08-17 05:52:00,68.0,27.0,29.59,South,175,3.0,4.0,21,0.00,,,0.00,,2013-08-17 11:52:00,
2013-08-17 06:11:00,67.0,26.0,29.59,NW,317,1.0,6.0,21,0.00,,,0.00,,2013-08-17 12:11:00,
2013-08-17 06:21:00,67.0,26.0,29.59,SW,232,4.0,6.0,21,0.00,,,0.00,,2013-08-17 12:21:00,
2013-08-17 06:41:00,69.0,25.0,29.61,SSE,147,0.0,4.0,19,0.00,,,0.00,,2013-08-17 12:41:00,
2013-08-17 06:52:00,68.0,28.0,29.61,WSW,252,2.0,4.0,22,0.00,,,0.00,,2013-08-17 12:52:00,
2013-08-17 07:11:00,67.0,29.0,29.62,WSW,252,0.0,3.0,24,0.00,,,0.00,,2013-08-17 13:11:00,
2013-08-17 07:21:00,67.0,29.0,29.62,WSW,256,4.0,6.0,24,0.00,,,0.00,,2013-08-17 13:21:00,
2013-08-17 07:41:00,66.0,28.0,29.63,West,276,5.0,6.0,24,0.00,,,0.00,,2013-08-17 13:41:00,
2013-08-17 07:52:00,67.0,29.0,29.63,WSW,252,4.0,5.0,24,0.00,,,0.00,,2013-08-17 13:52:00,
2013-08-17 08:11:00,68.0,31.0,29.63,WSW,247,2.0,3.0,25,0.00,,,0.00,,2013-08-17 14:11:00,
2013-08-17 08:21:00,69.0,35.0,29.64,WSW,246,3.0,5.0,28,0.00,,,0.00,,2013-08-17 14:21:00,
2013-08-17 08:41:00,70.0,30.0,29.64,West,276,4.0,6.0,23,0.00,,,0.00,,2013-08-17 14:41:00,
2013-08-17 08:52:00,72.0,34.0,29.64,West,277,4.0,5.0,25,0.00,,,0.00,,2013-08-17 14:52:00,
2013-08-17 09:11:00,75.0,35.0,29.64,West,277,0.0,2.0,23,0.00,,,0.00,,2013-08-17 15:11:00,
2013-08-17 09:22:00,77.0,29.0,29.63,WNW,288,0.0,3.0,17,0.00,,,0.00,,2013-08-17 15:22:00,
2013-08-17 09:43:00,78.0,32.0,29.64,NNE,30,4.0,5.0,19,0.00,,,0.00,,2013-08-17 15:43:00,
2013-08-17 09:53:00,78.0,32.0,29.64,NE,55,3.0,5.0,19,0.00,,,0.00,,2013-08-17 15:53:00,
2013-08-17 10:12:00,78.0,31.0,29.64,NE,55,3.0,6.0,18,0.00,,,0.00,,2013-08-17 16:12:00,
2013-08-17 10:23:00,78.0,31.0,29.64,ENE,78,3.0,5.0,18,0.00,,,0.00,,2013-08-17 16:23:00,
2013-08-17 10:42:00,79.0,32.0,29.64,NE,44,2.0,6.0,18,0.00,,,0.00,,2013-08-17 16:42:00,
2013-08-17 10:53:00,79.0,32.0,29.64,East,87,4.0,6.0,18,0.00,,,0.00,,2013-08-17 16:53:00,
2013-08-17 11:12:00,79.0,33.0,29.64,ENE,69,5.0,9.0,19,0.00,,,0.00,,2013-08-17 17:12:00,
2013-08-17 11:23:00,79.0,36.0,29.64,NE,49,4.0,6.0,21,0.00,,,0.00,,2013-08-17 17:23:00,
2013-08-17 11:52:00,80.0,35.0,29.63,North,360,3.0,6.0,20,0.00,,,0.00,,2013-08-17 17:52:00,
2013-08-17 12:11:00,80.0,37.0,29.63,NE,48,1.0,8.0,21,0.00,,,0.00,,2013-08-17 18:11:00,
2013-08-17 12:21:00,81.0,36.0,29.62,SE,131,7.0,10.0,20,0.00,,,0.00,,2013-08-17 18:21:00,
2013-08-17 12:41:00,82.0,37.0,29.61,ENE,78,6.0,10.0,20,0.00,,,0.00,,2013-08-17 18:41:00,
2013-08-17 12:52:00,82.0,41.0,29.61,ENE,67,9.0,14.0,23,0.00,,,0.00,,2013-08-17 18:52:00,
2013-08-17 13:11:00,83.0,44.0,29.60,NE,53,8.0,15.0,25,0.00,,,0.00,,2013-08-17 19:11:00,
2013-08-17 13:21:00,83.0,42.0,29.59,NNE,27,10.0,15.0,24,0.00,,,0.00,,2013-08-17 19:21:00,
2013-08-17 13:41:00,84.0,42.0,29.59,NE,46,8.0,15.0,23,0.00,,,0.00,,2013-08-17 19:41:00,
2013-08-17 13:52:00,84.0,42.0,29.58,NE,45,10.0,17.0,23,0.00,,,0.00,,2013-08-17 19:52:00,
2013-08-17 14:11:00,85.0,42.0,29.58,NE,35,9.0,13.0,22,0.00,,,0.00,,2013-08-17 20:11:00,
2013-08-17 14:21:00,85.0,42.0,29.57,ENE,74,11.0,15.0,22,0.00,,,0.00,,2013-08-17 20:21:00,
2013-08-17 14:41:00,86.0,41.0,29.57,NNE,22,8.0,17.0,21,0.00,,,0.00,,2013-08-17 20:41:00,
2013-08-17 14:52:00,86.0,41.0,29.57,NE,44,6.0,12.0,21,0.00,,,0.00,,2013-08-17 20:52:00,
2013-08-17 15:11:00,86.0,41.0,29.56,North,5,12.0,16.0,21,0.00,,,0.00,,2013-08-17 21:11:00,
2013-08-17 15:21:00,86.0,41.0,29.56,North,360,6.0,12.0,21,0.00,,,0.00,,2013-08-17 21:21:00,
2013-08-17 15:42:00,86.0,41.0,29.56,NNE,26,10.0,14.0,21,0.00,,,0.00,,2013-08-17 21:42:00,
2013-08-17 15:53:00,86.0,40.0,29.55,NE,38,9.0,14.0,20,0.00,,,0.00,,2013-08-17 21:53:00,
2013-08-17 16:12:00,86.0,39.0,29.55,North,360,4.0,14.0,19,0.00,,,0.00,,2013-08-17 22:12:00,
2013-08-17 16:22:00,87.0,40.0,29.55,North,355,4.0,13.0,19,0.00,,,0.00,,2013-08-17 22:22:00,
2013-08-17 16:42:00,87.0,41.0,29.54,NW,306,1.0,11.0,20,0.00,,,0.00,,2013-08-17 22:42:00,
2013-08-17 16:52:00,86.0,39.0,29.54,NE,42,6.0,13.0,19,0.00,,,0.00,,2013-08-17 22:52:00,
2013-08-17 17:11:00,85.0,38.0,29.54,North,350,4.0,13.0,19,0.00,,,0.00,,2013-08-17 23:11:00,
2013-08-17 17:22:00,85.0,39.0,29.54,NNW,346,4.0,9.0,20,0.00,,,0.00,,2013-08-17 23:22:00,
2013-08-17 17:42:00,85.0,39.0,29.54,NNW,331,8.0,12.0,20,0.00,,,0.00,,2013-08-17 23:42:00,
2013-08-17 17:52:00,84.0,41.0,29.54,North,351,4.0,12.0,22,0.00,,,0.00,,2013-08-17 23:52:00,
2013-08-17 18:21:00,83.0,41.0,29.55,NW,325,6.0,13.0,23,0.00,,,0.00,,2013-08-18 00:21:00,
2013-08-17 18:41:00,82.0,42.0,29.55,NW,325,6.0,11.0,24,0.00,,,0.00,,2013-08-18 00:41:00,
2013-08-17 18:52:00,81.0,42.0,29.55,WNW,300,6.0,11.0,25,0.00,,,0.00,,2013-08-18 00:52:00,
2013-08-17 19:11:00,81.0,42.0,29.54,NW,315,6.0,10.0,25,0.00,,,0.00,,2013-08-18 01:11:00,
2013-08-17 19:21:00,81.0,42.0,29.55,NW,316,6.0,11.0,25,0.00,,,0.00,,2013-08-18 01:21:00,
2013-08-17 19:52:00,78.0,41.0,29.55,WNW,290,7.0,10.0,27,0.00,,,0.00,,2013-08-18 01:52:00,
2013-08-17 20:11:00,78.0,41.0,29.55,WNW,285,7.0,9.0,27,0.00,,,0.00,,2013-08-18 02:11:00,
2013-08-17 20:21:00,77.0,41.0,29.55,WNW,288,7.0,9.0,28,0.00,,,0.00,,2013-08-18 02:21:00,
2013-08-17 20:41:00,77.0,42.0,29.55,West,279,7.0,9.0,29,0.00,,,0.00,,2013-08-18 02:41:00,
2013-08-17 20:52:00,76.0,41.0,29.55,West,278,6.0,9.0,28,0.00,,,0.00,,2013-08-18 02:52:00,
2013-08-17 21:11:00,75.0,41.0,29.55,West,267,7.0,9.0,29,0.00,,,0.00,,2013-08-18 03:11:00,
2013-08-17 21:21:00,75.0,41.0,29.55,West,281,8.0,10.0,29,0.00,,,0.00,,2013-08-18 03:21:00,
2013-08-17 21:43:00,73.0,41.0,29.56,West,276,6.0,9.0,31,0.00,,,0.00,,2013-08-18 03:43:00,
2013-08-17 21:53:00,73.0,40.0,29.57,WNW,288,7.0,9.0,30,0.00,,,0.00,,2013-08-18 03:53:00,
2013-08-17 22:02:00,-999.0,-99.9,29.57,WSW,257,5.0,9.0,-999,0.00,,,0.00,,2013-08-18 04:02:00,
2013-08-17 22:12:00,74.0,40.0,29.57,WSW,257,5.0,9.0,29,0.00,,,0.00,,2013-08-18 04:12:00,
2013-08-17 22:23:00,73.0,40.0,29.57,West,271,6.0,7.0,30,0.00,,,0.00,,2013-08-18 04:23:00,
2013-08-17 22:42:00,73.0,39.0,29.57,WNW,289,6.0,8.0,29,0.00,,,0.00,,2013-08-18 04:42:00,
2013-08-17 22:53:00,73.0,40.0,29.57,WNW,286,6.0,9.0,30,0.00,,,0.00,,2013-08-18 04:53:00,
2013-08-17 23:12:00,73.0,38.0,29.57,WNW,286,9.0,11.0,28,0.00,,,0.00,,2013-08-18 05:12:00,
2013-08-17 23:22:00,73.0,38.0,29.57,WNW,292,8.0,10.0,28,0.00,,,0.00,,2013-08-18 05:22:00,
2013-08-17 23:42:00,72.0,38.0,29.58,NW,307,5.0,8.0,29,0.00,,,0.00,,2013-08-18 05:42:00,
2013-08-17 23:52:00,71.0,37.0,29.57,WNW,294,6.0,8.0,29,0.00,,,0.00,,2013-08-18 05:52:00,